createdAt,value
2022-08-26T00:00:25.170Z,7.37
2022-08-26T00:00:57.542Z,7.37
2022-08-26T00:01:32.733Z,7.10
2022-08-26T00:02:07.569Z,7.27
2022-08-26T00:02:40.602Z,6.80
2022-08-26T00:03:19.721Z,7.17
2022-08-26T00:03:52.114Z,7.70
2022-08-26T00:04:26.006Z,7.20
2022-08-26T00:05:01.397Z,6.60
2022-08-26T00:05:34.242Z,7.93
2022-08-26T00:06:07.363Z,7.80
2022-08-26T00:06:46.177Z,7.00
2022-08-26T00:07:18.988Z,7.10
2022-08-26T00:07:51.522Z,7.60
2022-08-26T00:08:26.558Z,6.37
2022-08-26T00:08:59.395Z,8.13
2022-08-26T00:09:37.289Z,7.40
2022-08-26T00:10:12.536Z,6.90
2022-08-26T00:10:45.022Z,6.80
2022-08-26T00:11:26.984Z,6.97
2022-08-26T00:11:59.627Z,7.17
2022-08-26T00:12:36.157Z,7.23
2022-08-26T00:13:10.737Z,7.50
2022-08-26T00:13:47.853Z,7.00
2022-08-26T00:14:24.179Z,6.40
2022-08-26T00:15:00.926Z,7.43
2022-08-26T00:15:35.961Z,6.97
2022-08-26T00:16:09.255Z,7.10
2022-08-26T00:16:48.199Z,7.33
2022-08-26T00:17:24.222Z,7.47
2022-08-26T00:17:59.154Z,6.77
2022-08-26T00:18:40.724Z,7.20
2022-08-26T00:19:13.192Z,7.07
2022-08-26T00:19:45.581Z,7.17
2022-08-26T00:20:26.395Z,7.33
2022-08-26T00:20:59.278Z,7.30
2022-08-26T00:21:38.645Z,7.00
2022-08-26T00:22:14.109Z,6.60
2022-08-26T00:22:54.351Z,6.77
2022-08-26T00:23:27.110Z,6.37
2022-08-26T00:24:03.902Z,6.53
2022-08-26T00:24:36.239Z,6.40
2022-08-26T00:25:10.202Z,6.50
2022-08-26T00:25:45.166Z,6.77
2022-08-26T00:26:17.742Z,6.80
2022-08-26T00:26:50.713Z,7.40
2022-08-26T00:27:26.999Z,6.50
2022-08-26T00:28:01.248Z,6.57
2022-08-26T00:28:34.302Z,6.67
2022-08-26T00:29:09.415Z,6.67
2022-08-26T00:29:41.887Z,6.43
2022-08-26T00:30:17.023Z,6.73
2022-08-26T00:30:57.766Z,7.03
2022-08-26T00:31:31.190Z,7.23
2022-08-26T00:32:04.353Z,6.47
2022-08-26T00:32:39.482Z,6.73
2022-08-26T00:33:11.989Z,7.07
2022-08-26T00:33:47.009Z,7.10
2022-08-26T00:34:21.945Z,7.00
2022-08-26T00:34:54.584Z,6.53
2022-08-26T00:35:28.281Z,7.00
2022-08-26T00:36:03.305Z,7.10
2022-08-26T00:36:36.779Z,7.00
2022-08-26T00:37:11.632Z,7.00
2022-08-26T00:37:49.690Z,6.70
2022-08-26T00:38:22.856Z,6.30
2022-08-26T00:38:55.331Z,7.20
2022-08-26T00:39:30.295Z,7.07
2022-08-26T00:40:05.390Z,6.70
2022-08-26T00:40:41.206Z,6.90
2022-08-26T00:41:17.094Z,6.30
2022-08-26T00:41:50.594Z,7.17
2022-08-26T00:42:22.932Z,7.10
2022-08-26T00:42:58.110Z,6.73
2022-08-26T00:43:33.395Z,7.10
2022-08-26T00:44:20.181Z,7.17
2022-08-26T00:44:55.147Z,6.27
2022-08-26T00:45:27.725Z,5.93
2022-08-26T00:46:04.582Z,6.57
2022-08-26T00:46:46.469Z,6.37
2022-08-26T00:47:24.145Z,6.10
2022-08-26T00:47:59.228Z,6.30
2022-08-26T00:48:36.162Z,6.50
2022-08-26T00:49:16.487Z,7.07
2022-08-26T00:49:49.455Z,6.20
2022-08-26T00:50:28.798Z,7.03
2022-08-26T00:51:05.327Z,6.50
2022-08-26T00:51:43.075Z,6.80
2022-08-26T00:52:20.114Z,7.03
2022-08-26T00:52:54.218Z,6.07
2022-08-26T00:53:29.645Z,6.17
2022-08-26T00:54:07.413Z,7.07
2022-08-26T00:54:47.098Z,6.40
2022-08-26T00:55:24.002Z,6.03
2022-08-26T00:56:04.563Z,6.03
2022-08-26T00:56:43.846Z,5.40
2022-08-26T00:57:20.241Z,6.17
2022-08-26T00:57:55.351Z,6.57
2022-08-26T00:58:29.358Z,6.67
2022-08-26T00:59:04.288Z,6.40
2022-08-26T00:59:39.629Z,6.33
2022-08-26T01:00:16.904Z,7.43
2022-08-26T01:00:51.997Z,7.27
2022-08-26T01:01:26.281Z,6.77
2022-08-26T01:01:58.700Z,6.07
2022-08-26T01:02:33.753Z,6.00
2022-08-26T01:03:07.572Z,6.17
2022-08-26T01:03:46.012Z,6.53
2022-08-26T01:04:26.253Z,6.23
2022-08-26T01:05:00.986Z,6.70
2022-08-26T01:05:35.830Z,6.83
2022-08-26T01:06:13.145Z,7.03
2022-08-26T01:06:45.778Z,6.47
2022-08-26T01:07:18.095Z,5.90
2022-08-26T01:07:54.527Z,6.90
2022-08-26T01:08:27.268Z,6.37
2022-08-26T01:09:00.191Z,6.63
2022-08-26T01:09:35.527Z,6.83
2022-08-26T01:10:12.010Z,6.47
2022-08-26T01:10:44.401Z,6.20
2022-08-26T01:11:19.616Z,7.03
2022-08-26T01:11:54.385Z,6.10
2022-08-26T01:12:28.655Z,7.07
2022-08-26T01:13:06.536Z,7.30
2022-08-26T01:13:39.806Z,6.63
2022-08-26T01:14:15.106Z,6.33
2022-08-26T01:14:47.818Z,7.20
2022-08-26T01:15:25.625Z,6.90
2022-08-26T01:16:04.281Z,6.50
2022-08-26T01:16:37.148Z,6.70
2022-08-26T01:17:10.044Z,7.17
2022-08-26T01:17:45.038Z,6.20
2022-08-26T01:18:17.753Z,6.70
2022-08-26T01:18:50.277Z,6.10
2022-08-26T01:19:31.127Z,6.43
2022-08-26T01:20:08.757Z,6.80
2022-08-26T01:20:46.845Z,6.30
2022-08-26T01:21:28.210Z,7.10
2022-08-26T01:22:06.997Z,6.87
2022-08-26T01:22:49.633Z,6.60
2022-08-26T01:23:29.669Z,6.50
2022-08-26T01:24:02.212Z,6.47
2022-08-26T01:24:34.968Z,6.47
2022-08-26T01:25:11.439Z,6.50
2022-08-26T01:25:46.833Z,6.60
2022-08-26T01:26:24.440Z,6.97
2022-08-26T01:26:59.645Z,6.37
2022-08-26T01:27:33.545Z,7.50
2022-08-26T01:28:12.281Z,5.93
2022-08-26T01:28:45.147Z,6.30
2022-08-26T01:29:23.338Z,6.80
2022-08-26T01:29:58.255Z,6.43
2022-08-26T01:30:32.610Z,7.03
2022-08-26T01:31:09.037Z,6.63
2022-08-26T01:31:49.157Z,6.30
2022-08-26T01:32:23.252Z,6.93
2022-08-26T01:32:56.833Z,6.40
2022-08-26T01:33:42.422Z,6.60
2022-08-26T01:34:18.332Z,6.80
2022-08-26T01:34:52.860Z,7.30
2022-08-26T01:35:28.476Z,6.90
2022-08-26T01:36:01.542Z,7.00
2022-08-26T01:36:33.917Z,7.70
2022-08-26T01:37:15.467Z,7.07
2022-08-26T01:37:54.509Z,6.00
2022-08-26T01:38:27.916Z,6.67
2022-08-26T01:39:07.340Z,6.90
2022-08-26T01:39:40.170Z,7.73
2022-08-26T01:40:18.836Z,6.60
2022-08-26T01:40:53.899Z,6.70
2022-08-26T01:41:29.120Z,7.13
2022-08-26T01:42:03.167Z,6.53
2022-08-26T01:42:38.401Z,6.90
2022-08-26T01:43:14.882Z,7.07
2022-08-26T01:43:49.622Z,6.40
2022-08-26T01:44:26.456Z,7.50
2022-08-26T01:45:01.948Z,6.87
2022-08-26T01:45:35.439Z,7.13
2022-08-26T01:46:11.666Z,7.20
2022-08-26T01:46:44.168Z,7.40
2022-08-26T01:47:20.409Z,7.17
2022-08-26T01:47:57.424Z,7.57
2022-08-26T01:48:32.114Z,6.70
2022-08-26T01:49:07.690Z,6.90
2022-08-26T01:49:43.445Z,6.50
2022-08-26T01:50:27.802Z,7.07
2022-08-26T01:51:06.773Z,6.43
2022-08-26T01:51:39.837Z,6.40
2022-08-26T01:52:13.395Z,6.83
2022-08-26T01:52:49.951Z,7.10
2022-08-26T01:53:29.318Z,7.07
2022-08-26T01:54:04.694Z,6.33
2022-08-26T01:54:37.301Z,7.00
2022-08-26T01:55:12.187Z,6.53
2022-08-26T01:55:49.981Z,6.93
2022-08-26T01:56:23.648Z,6.97
2022-08-26T01:56:56.175Z,6.97
2022-08-26T01:57:32.011Z,6.43
2022-08-26T01:58:10.761Z,6.80
2022-08-26T01:58:50.941Z,6.10
2022-08-26T01:59:24.755Z,6.40
2022-08-26T01:59:59.539Z,6.73
2022-08-26T02:00:34.581Z,6.80
2022-08-26T02:01:07.134Z,6.67
2022-08-26T02:01:44.775Z,6.53
2022-08-26T02:02:17.273Z,6.10
2022-08-26T02:03:12.566Z,6.47
2022-08-26T02:03:54.567Z,7.07
2022-08-26T02:04:29.721Z,6.53
2022-08-26T02:05:04.854Z,6.93
2022-08-26T02:05:37.358Z,6.50
2022-08-26T02:06:12.289Z,6.30
2022-08-26T02:06:45.506Z,6.67
2022-08-26T02:07:19.873Z,6.77
2022-08-26T02:07:56.510Z,6.80
2022-08-26T02:08:36.058Z,6.60
2022-08-26T02:09:11.685Z,6.40
2022-08-26T02:09:44.362Z,7.30
2022-08-26T02:10:16.848Z,7.20
2022-08-26T02:10:55.156Z,7.00
2022-08-26T02:11:27.617Z,7.33
2022-08-26T02:12:00.292Z,6.77
2022-08-26T02:12:37.200Z,6.90
2022-08-26T02:13:11.278Z,7.07
2022-08-26T02:13:52.642Z,6.67
2022-08-26T02:14:30.321Z,6.53
2022-08-26T02:15:06.173Z,7.00
2022-08-26T02:15:44.269Z,6.27
2022-08-26T02:16:19.034Z,6.60
2022-08-26T02:16:53.330Z,6.73
2022-08-26T02:17:32.737Z,6.97
2022-08-26T02:18:05.869Z,6.57
2022-08-26T02:18:42.581Z,7.23
2022-08-26T02:19:17.570Z,6.30
2022-08-26T02:19:53.476Z,6.57
2022-08-26T02:20:26.591Z,6.53
2022-08-26T02:20:59.207Z,6.73
2022-08-26T02:21:34.710Z,7.33
2022-08-26T02:22:11.791Z,6.83
2022-08-26T02:22:45.229Z,6.87
2022-08-26T02:23:20.292Z,6.67
2022-08-26T02:24:09.245Z,6.30
2022-08-26T02:24:52.864Z,6.90
2022-08-26T02:25:27.709Z,6.53
2022-08-26T02:26:04.565Z,7.10
2022-08-26T02:26:39.622Z,6.13
2022-08-26T02:27:12.057Z,6.37
2022-08-26T02:27:46.713Z,6.57
2022-08-26T02:28:21.741Z,6.40
2022-08-26T02:29:04.061Z,6.97
2022-08-26T02:29:38.431Z,7.00
2022-08-26T02:30:17.205Z,6.40
2022-08-26T02:30:49.696Z,6.43
2022-08-26T02:31:25.986Z,6.30
2022-08-26T02:31:58.622Z,7.00
2022-08-26T02:32:31.118Z,5.90
2022-08-26T02:33:04.040Z,5.70
2022-08-26T02:33:42.891Z,6.47
2022-08-26T02:34:17.938Z,6.20
2022-08-26T02:34:50.375Z,6.57
2022-08-26T02:35:26.449Z,6.40
2022-08-26T02:35:58.857Z,6.60
2022-08-26T02:36:31.161Z,6.50
2022-08-26T02:37:09.146Z,5.90
2022-08-26T02:37:42.013Z,6.77
2022-08-26T02:38:14.466Z,6.97
2022-08-26T02:38:49.626Z,6.30
2022-08-26T02:39:27.023Z,6.80
2022-08-26T02:39:59.505Z,7.60
2022-08-26T02:40:41.060Z,8.17
2022-08-26T02:41:14.195Z,7.33
2022-08-26T02:41:47.034Z,7.77
2022-08-26T02:42:22.897Z,6.97
2022-08-26T02:42:56.041Z,8.77
2022-08-26T02:43:31.268Z,7.70
2022-08-26T02:44:07.358Z,8.10
2022-08-26T02:44:39.926Z,8.30
2022-08-26T02:45:13.121Z,7.53
2022-08-26T02:45:51.870Z,7.80
2022-08-26T02:46:29.856Z,7.97
2022-08-26T02:47:02.595Z,7.70
2022-08-26T02:47:37.751Z,8.30
2022-08-26T02:48:14.385Z,8.00
2022-08-26T02:48:49.307Z,7.87
2022-08-26T02:49:22.424Z,7.23
2022-08-26T02:49:54.766Z,8.20
2022-08-26T02:50:30.178Z,7.23
2022-08-26T02:51:02.652Z,7.47
2022-08-26T02:51:35.037Z,8.03
2022-08-26T02:52:10.529Z,8.20
2022-08-26T02:52:43.070Z,7.70
2022-08-26T02:53:16.653Z,7.50
2022-08-26T02:53:59.787Z,7.27
2022-08-26T02:54:36.446Z,8.40
2022-08-26T02:55:09.034Z,6.97
2022-08-26T02:55:44.388Z,7.43
2022-08-26T02:56:16.714Z,7.70
2022-08-26T02:56:49.522Z,6.97
2022-08-26T02:57:24.667Z,8.07
2022-08-26T02:57:57.091Z,6.97
2022-08-26T02:58:32.007Z,7.60
2022-08-26T02:59:04.423Z,7.60
2022-08-26T02:59:39.408Z,7.70
2022-08-26T03:00:14.773Z,7.10
2022-08-26T03:00:53.028Z,7.57
2022-08-26T03:01:27.845Z,7.50
2022-08-26T03:02:00.590Z,6.77
2022-08-26T03:02:35.597Z,6.93
2022-08-26T03:03:08.338Z,7.70
2022-08-26T03:03:41.440Z,7.30
2022-08-26T03:04:16.517Z,7.10
2022-08-26T03:04:58.110Z,7.37
2022-08-26T03:05:35.499Z,7.20
2022-08-26T03:06:12.454Z,7.00
2022-08-26T03:06:52.692Z,6.73
2022-08-26T03:07:27.116Z,6.90
2022-08-26T03:08:05.917Z,6.50
2022-08-26T03:08:41.705Z,6.57
2022-08-26T03:09:18.852Z,6.20
2022-08-26T03:09:58.707Z,7.70
2022-08-26T03:10:33.298Z,7.10
2022-08-26T03:11:06.143Z,6.97
2022-08-26T03:11:43.369Z,7.30
2022-08-26T03:12:16.158Z,6.17
2022-08-26T03:12:52.257Z,7.00
2022-08-26T03:13:27.381Z,6.23
2022-08-26T03:14:00.702Z,6.50
2022-08-26T03:14:42.018Z,6.43
2022-08-26T03:15:17.869Z,6.10
2022-08-26T03:15:50.925Z,5.90
2022-08-26T03:16:32.651Z,6.10
2022-08-26T03:17:08.027Z,6.40
2022-08-26T03:17:42.566Z,6.70
2022-08-26T03:18:18.697Z,6.67
2022-08-26T03:18:55.105Z,6.83
2022-08-26T03:19:32.237Z,6.10
2022-08-26T03:20:11.585Z,7.13
2022-08-26T03:20:46.626Z,7.33
2022-08-26T03:21:19.400Z,6.47
2022-08-26T03:21:57.841Z,6.23
2022-08-26T03:22:30.570Z,6.27
2022-08-26T03:23:05.729Z,6.60
2022-08-26T03:23:40.680Z,6.30
2022-08-26T03:24:13.606Z,6.40
2022-08-26T03:24:48.606Z,7.10
2022-08-26T03:25:27.387Z,6.70
2022-08-26T03:25:59.748Z,6.20
2022-08-26T03:26:34.946Z,6.70
2022-08-26T03:27:09.119Z,6.67
2022-08-26T03:27:41.509Z,6.30
2022-08-26T03:28:20.502Z,5.90
2022-08-26T03:29:10.381Z,6.00
2022-08-26T03:29:57.734Z,6.57
2022-08-26T03:30:45.475Z,6.67
2022-08-26T03:31:21.048Z,6.47
2022-08-26T03:31:57.258Z,6.60
2022-08-26T03:32:33.043Z,6.37
2022-08-26T03:33:05.794Z,6.70
2022-08-26T03:33:40.910Z,6.33
2022-08-26T03:34:13.305Z,6.40
2022-08-26T03:34:49.863Z,6.20
2022-08-26T03:35:29.569Z,6.60
2022-08-26T03:36:04.126Z,6.30
2022-08-26T03:36:39.354Z,6.23
2022-08-26T03:37:14.239Z,6.20
2022-08-26T03:37:47.502Z,6.93
2022-08-26T03:38:26.256Z,7.00
2022-08-26T03:38:59.085Z,6.60
2022-08-26T03:39:32.650Z,6.67
2022-08-26T03:40:11.738Z,6.97
2022-08-26T03:40:47.297Z,6.00
2022-08-26T03:41:21.428Z,6.70
2022-08-26T03:41:57.662Z,6.60
2022-08-26T03:42:29.947Z,6.63
2022-08-26T03:43:03.364Z,6.00
2022-08-26T03:43:40.825Z,6.23
2022-08-26T03:44:13.285Z,6.37
2022-08-26T03:44:48.877Z,6.37
2022-08-26T03:45:28.914Z,7.10
2022-08-26T03:46:05.107Z,6.80
2022-08-26T03:46:38.764Z,7.10
2022-08-26T03:47:16.559Z,5.83
2022-08-26T03:47:48.920Z,6.37
2022-08-26T03:48:21.610Z,7.30
2022-08-26T03:48:56.617Z,6.63
2022-08-26T03:49:29.100Z,6.13
2022-08-26T03:50:03.321Z,6.37
2022-08-26T03:50:43.438Z,6.90
2022-08-26T03:51:21.383Z,6.70
2022-08-26T03:51:53.786Z,6.23
2022-08-26T03:52:33.633Z,7.10
2022-08-26T03:53:07.500Z,6.27
2022-08-26T03:53:48.371Z,7.13
2022-08-26T03:54:20.722Z,6.47
2022-08-26T03:54:55.337Z,6.70
2022-08-26T03:55:34.792Z,6.63
2022-08-26T03:56:10.240Z,5.90
2022-08-26T03:56:42.762Z,7.03
2022-08-26T03:57:21.430Z,6.57
2022-08-26T03:57:55.146Z,6.30
2022-08-26T03:58:27.922Z,5.90
2022-08-26T03:59:07.632Z,6.43
2022-08-26T03:59:41.298Z,6.30
2022-08-26T04:00:18.228Z,5.83
2022-08-26T04:00:55.447Z,6.17
2022-08-26T04:01:28.547Z,6.50
2022-08-26T04:02:01.539Z,6.10
2022-08-26T04:02:37.272Z,6.27
2022-08-26T04:03:14.638Z,5.83
2022-08-26T04:04:00.097Z,6.03
2022-08-26T04:04:35.663Z,7.33
2022-08-26T04:05:08.822Z,6.23
2022-08-26T04:05:41.129Z,5.50
2022-08-26T04:06:16.342Z,6.77
2022-08-26T04:06:49.410Z,6.40
2022-08-26T04:07:26.126Z,6.40
2022-08-26T04:07:58.497Z,6.20
2022-08-26T04:08:31.362Z,6.50
2022-08-26T04:09:08.242Z,6.80
2022-08-26T04:09:40.766Z,6.20
2022-08-26T04:10:28.455Z,6.50
2022-08-26T04:11:04.462Z,6.90
2022-08-26T04:11:40.233Z,6.57
2022-08-26T04:12:15.267Z,6.07
2022-08-26T04:12:47.807Z,6.50
2022-08-26T04:13:20.146Z,6.13
2022-08-26T04:13:55.171Z,6.50
2022-08-26T04:14:28.314Z,6.43
2022-08-26T04:15:00.606Z,5.77
2022-08-26T04:15:39.401Z,6.97
2022-08-26T04:16:12.958Z,6.70
2022-08-26T04:16:48.791Z,6.83
2022-08-26T04:17:25.837Z,6.27
2022-08-26T04:17:58.413Z,6.57
2022-08-26T04:18:37.216Z,6.70
2022-08-26T04:19:10.621Z,6.50
2022-08-26T04:19:47.063Z,6.50
2022-08-26T04:20:19.691Z,6.70
2022-08-26T04:20:52.247Z,6.90
2022-08-26T04:21:27.516Z,7.10
2022-08-26T04:22:00.541Z,6.30
2022-08-26T04:22:34.049Z,7.60
2022-08-26T04:23:12.019Z,6.50
2022-08-26T04:23:48.086Z,6.63
2022-08-26T04:24:27.070Z,7.37
2022-08-26T04:25:00.997Z,6.30
2022-08-26T04:25:33.449Z,6.33
2022-08-26T04:26:08.793Z,6.80
2022-08-26T04:26:49.254Z,5.83
2022-08-26T04:27:24.198Z,7.27
2022-08-26T04:27:57.758Z,6.60
2022-08-26T04:28:31.904Z,6.70
2022-08-26T04:29:13.989Z,7.23
2022-08-26T04:29:47.753Z,7.00
2022-08-26T04:30:21.273Z,6.07
2022-08-26T04:30:56.414Z,7.20
2022-08-26T04:31:28.905Z,6.43
2022-08-26T04:32:07.016Z,6.70
2022-08-26T04:32:43.142Z,6.20
2022-08-26T04:33:15.834Z,6.37
2022-08-26T04:33:52.795Z,6.30
2022-08-26T04:34:28.713Z,7.10
2022-08-26T04:35:01.917Z,7.40
2022-08-26T04:35:37.232Z,6.20
2022-08-26T04:36:13.411Z,6.53
2022-08-26T04:36:45.767Z,6.67
2022-08-26T04:37:20.695Z,6.10
2022-08-26T04:37:55.525Z,7.10
2022-08-26T04:38:28.093Z,7.20
2022-08-26T04:39:04.910Z,6.93
2022-08-26T04:39:37.349Z,6.53
2022-08-26T04:40:10.478Z,6.70
2022-08-26T04:40:46.994Z,6.70
2022-08-26T04:41:19.910Z,6.00
2022-08-26T04:41:58.040Z,6.30
2022-08-26T04:42:32.217Z,6.47
2022-08-26T04:43:05.948Z,6.67
2022-08-26T04:43:42.265Z,6.50
2022-08-26T04:44:15.083Z,6.17
2022-08-26T04:44:50.082Z,6.40
2022-08-26T04:45:23.036Z,6.87
2022-08-26T04:45:55.503Z,6.70
2022-08-26T04:46:31.700Z,6.13
2022-08-26T04:47:04.852Z,7.03
2022-08-26T04:47:37.183Z,5.73
2022-08-26T04:48:13.017Z,6.60
2022-08-26T04:48:51.810Z,6.20
2022-08-26T04:49:27.658Z,6.17
2022-08-26T04:50:00.149Z,6.60
2022-08-26T04:50:34.413Z,6.10
2022-08-26T04:51:06.979Z,6.20
2022-08-26T04:51:42.387Z,6.00
2022-08-26T04:52:16.333Z,6.70
2022-08-26T04:52:48.629Z,6.57
2022-08-26T04:53:23.537Z,6.67
2022-08-26T04:53:57.926Z,6.10
2022-08-26T04:54:30.523Z,6.40
2022-08-26T04:55:08.431Z,6.03
2022-08-26T04:55:42.852Z,7.23
2022-08-26T04:56:18.114Z,6.13
2022-08-26T04:56:53.124Z,5.97
2022-08-26T04:57:28.093Z,6.27
2022-08-26T04:58:00.466Z,6.10
2022-08-26T04:58:35.712Z,6.33
2022-08-26T04:59:17.078Z,6.47
2022-08-26T04:59:50.350Z,6.23
2022-08-26T05:00:25.631Z,6.33
2022-08-26T05:00:58.715Z,7.40
2022-08-26T05:01:31.700Z,5.83
2022-08-26T05:02:07.316Z,6.70
2022-08-26T05:02:41.010Z,6.77
2022-08-26T05:03:15.262Z,6.20
2022-08-26T05:03:50.934Z,6.83
2022-08-26T05:04:23.734Z,6.37
2022-08-26T05:04:56.066Z,6.40
2022-08-26T05:05:28.417Z,7.10
2022-08-26T05:06:07.349Z,6.10
2022-08-26T05:06:41.835Z,6.33
2022-08-26T05:07:17.671Z,6.70
2022-08-26T05:07:50.056Z,7.00
2022-08-26T05:08:23.430Z,7.10
2022-08-26T05:08:58.381Z,5.90
2022-08-26T05:09:30.882Z,6.57
2022-08-26T05:10:03.877Z,6.30
2022-08-26T05:10:44.658Z,5.80
2022-08-26T05:11:17.365Z,6.50
2022-08-26T05:11:52.049Z,6.50
2022-08-26T05:12:27.922Z,5.90
2022-08-26T05:13:03.817Z,6.27
2022-08-26T05:13:43.326Z,5.33
2022-08-26T05:14:18.891Z,5.73
2022-08-26T05:14:51.238Z,6.17
2022-08-26T05:15:24.206Z,5.90
2022-08-26T05:16:01.178Z,6.43
2022-08-26T05:16:33.726Z,5.50
2022-08-26T05:17:06.165Z,6.50
2022-08-26T05:17:41.737Z,6.30
2022-08-26T05:18:15.213Z,6.53
2022-08-26T05:18:48.599Z,6.70
2022-08-26T05:19:23.791Z,7.07
2022-08-26T05:19:56.211Z,6.87
2022-08-26T05:20:28.942Z,7.80
2022-08-26T05:21:05.245Z,6.27
2022-08-26T05:21:38.868Z,7.00
2022-08-26T05:22:13.903Z,7.30
2022-08-26T05:22:47.282Z,6.77
2022-08-26T05:23:22.960Z,7.43
2022-08-26T05:23:58.600Z,7.20
2022-08-26T05:24:31.187Z,7.90
2022-08-26T05:25:03.801Z,8.13
2022-08-26T05:25:41.582Z,7.90
2022-08-26T05:26:14.467Z,6.83
2022-08-26T05:26:51.618Z,7.87
2022-08-26T05:27:23.970Z,7.40
2022-08-26T05:27:56.311Z,6.97
2022-08-26T05:28:33.841Z,8.10
2022-08-26T05:29:07.729Z,7.53
2022-08-26T05:29:40.251Z,7.23
2022-08-26T05:30:15.886Z,7.47
2022-08-26T05:30:48.808Z,7.20
2022-08-26T05:31:23.951Z,8.30
2022-08-26T05:31:58.981Z,7.77
2022-08-26T05:32:32.022Z,8.03
2022-08-26T05:33:05.213Z,8.00
2022-08-26T05:33:41.345Z,7.77
2022-08-26T05:34:13.810Z,7.60
2022-08-26T05:34:46.527Z,7.57
2022-08-26T05:35:21.690Z,7.63
2022-08-26T05:35:54.802Z,7.50
2022-08-26T05:36:32.391Z,7.63
2022-08-26T05:37:06.269Z,7.10
2022-08-26T05:37:38.579Z,7.40
2022-08-26T05:38:16.030Z,7.40
2022-08-26T05:38:48.854Z,7.70
2022-08-26T05:39:24.738Z,7.60
2022-08-26T05:39:57.139Z,6.83
2022-08-26T05:40:34.628Z,7.10
2022-08-26T05:41:17.257Z,6.37
2022-08-26T05:41:49.871Z,7.10
2022-08-26T05:42:22.160Z,7.40
2022-08-26T05:42:57.489Z,7.50
2022-08-26T05:43:33.494Z,7.80
2022-08-26T05:44:10.305Z,8.20
2022-08-26T05:44:55.796Z,7.10
2022-08-26T05:45:28.785Z,6.80
2022-08-26T05:46:09.551Z,7.90
2022-08-26T05:46:42.556Z,7.27
2022-08-26T05:47:19.053Z,6.70
2022-08-26T05:47:51.838Z,8.50
2022-08-26T05:48:26.887Z,7.57
2022-08-26T05:48:59.886Z,7.20
2022-08-26T05:49:35.070Z,7.83
2022-08-26T05:50:16.222Z,8.17
2022-08-26T05:50:50.143Z,7.80
2022-08-26T05:51:26.106Z,7.90
2022-08-26T05:51:58.638Z,7.90
2022-08-26T05:52:30.949Z,7.63
2022-08-26T05:53:05.937Z,8.70
2022-08-26T05:53:40.781Z,8.27
2022-08-26T05:54:21.894Z,7.73
2022-08-26T05:54:55.229Z,8.80
2022-08-26T05:55:27.718Z,8.40
2022-08-26T05:56:02.673Z,9.20
2022-08-26T05:56:34.950Z,8.37
2022-08-26T05:57:12.236Z,9.17
2022-08-26T05:57:44.786Z,8.00
2022-08-26T05:58:20.324Z,8.47
2022-08-26T05:58:59.786Z,8.50
2022-08-26T05:59:32.473Z,8.00
2022-08-26T06:00:06.188Z,8.57
2022-08-26T06:00:48.996Z,8.20
2022-08-26T06:01:25.729Z,8.90
2022-08-26T06:02:00.735Z,8.60
2022-08-26T06:02:33.117Z,8.40
2022-08-26T06:03:05.768Z,8.17
2022-08-26T06:03:42.622Z,8.50
2022-08-26T06:04:14.965Z,8.10
2022-08-26T06:04:47.525Z,7.80
2022-08-26T06:05:23.685Z,8.20
2022-08-26T06:05:56.180Z,9.10
2022-08-26T06:06:30.408Z,8.80
2022-08-26T06:07:05.461Z,9.50
2022-08-26T06:07:54.704Z,10.17
2022-08-26T06:08:27.600Z,9.10
2022-08-26T06:09:04.673Z,9.30
2022-08-26T06:09:37.197Z,9.40
2022-08-26T06:10:31.491Z,9.47
2022-08-26T06:11:17.160Z,9.33
2022-08-26T06:11:51.377Z,10.20
2022-08-26T06:12:26.410Z,9.97
2022-08-26T06:13:04.569Z,10.23
2022-08-26T06:13:46.430Z,10.00
2022-08-26T06:14:21.375Z,10.27
2022-08-26T06:14:55.143Z,10.53
2022-08-26T06:15:30.540Z,9.97
2022-08-26T06:16:05.579Z,9.47
2022-08-26T06:16:43.930Z,9.67
2022-08-26T06:17:16.773Z,10.63
2022-08-26T06:17:50.122Z,11.10
2022-08-26T06:18:28.874Z,11.30
2022-08-26T06:19:03.475Z,11.40
2022-08-26T06:19:45.889Z,11.63
2022-08-26T06:20:18.508Z,11.20
2022-08-26T06:20:57.285Z,11.07
2022-08-26T06:21:34.961Z,11.17
2022-08-26T06:22:27.452Z,11.87
2022-08-26T06:23:14.729Z,11.90
2022-08-26T06:24:03.865Z,10.07
2022-08-26T06:24:51.133Z,11.93
2022-08-26T06:25:38.843Z,11.77
2022-08-26T06:26:14.502Z,11.23
2022-08-26T06:26:50.521Z,9.40
2022-08-26T06:27:30.599Z,9.90
2022-08-26T06:28:05.481Z,9.57
2022-08-26T06:28:37.851Z,9.20
2022-08-26T06:29:12.822Z,9.00
2022-08-26T06:29:58.550Z,8.23
2022-08-26T06:30:30.895Z,9.17
2022-08-26T06:31:06.560Z,8.77
2022-08-26T06:31:39.985Z,9.40
2022-08-26T06:32:15.086Z,8.10
2022-08-26T06:32:47.430Z,8.87
2022-08-26T06:33:22.232Z,8.37
2022-08-26T06:33:58.401Z,9.63
2022-08-26T06:34:31.104Z,7.90
2022-08-26T06:35:03.729Z,8.33
2022-08-26T06:35:42.849Z,8.80
2022-08-26T06:36:19.501Z,8.40
2022-08-26T06:36:54.594Z,8.73
2022-08-26T06:37:27.159Z,7.93
2022-08-26T06:37:59.881Z,8.47
2022-08-26T06:38:34.778Z,8.40
2022-08-26T06:39:11.550Z,8.90
2022-08-26T06:39:44.069Z,8.37
2022-08-26T06:40:19.149Z,8.40
2022-08-26T06:40:54.887Z,8.60
2022-08-26T06:41:32.015Z,9.37
2022-08-26T06:42:06.332Z,9.07
2022-08-26T06:42:42.426Z,8.93
2022-08-26T06:43:17.369Z,8.47
2022-08-26T06:43:53.886Z,9.07
2022-08-26T06:44:26.940Z,8.80
2022-08-26T06:45:01.901Z,9.43
2022-08-26T06:45:38.537Z,8.13
2022-08-26T06:46:12.981Z,8.10
2022-08-26T06:46:50.217Z,9.10
2022-08-26T06:47:23.101Z,9.10
2022-08-26T06:47:57.223Z,8.70
2022-08-26T06:48:32.210Z,8.60
2022-08-26T06:49:04.986Z,8.30
2022-08-26T06:49:37.438Z,8.43
2022-08-26T06:50:12.763Z,9.13
2022-08-26T06:50:45.482Z,8.60
2022-08-26T06:51:23.693Z,8.80
2022-08-26T06:51:58.583Z,8.50
2022-08-26T06:52:33.852Z,9.10
2022-08-26T06:53:08.250Z,8.27
2022-08-26T06:53:45.712Z,8.90
2022-08-26T06:54:18.390Z,9.13
2022-08-26T06:54:50.729Z,9.27
2022-08-26T06:55:27.068Z,9.20
2022-08-26T06:55:59.524Z,9.10
2022-08-26T06:56:37.487Z,8.30
2022-08-26T06:57:09.883Z,9.57
2022-08-26T06:57:42.303Z,9.70
2022-08-26T06:58:17.563Z,9.43
2022-08-26T06:58:52.477Z,8.90
2022-08-26T06:59:28.418Z,8.80
2022-08-26T07:00:05.890Z,8.93
2022-08-26T07:00:39.666Z,9.53
2022-08-26T07:01:22.063Z,11.03
2022-08-26T07:01:55.035Z,9.27
2022-08-26T07:02:28.525Z,10.27
2022-08-26T07:03:03.704Z,9.80
2022-08-26T07:03:39.578Z,10.07
2022-08-26T07:04:22.045Z,10.20
2022-08-26T07:04:56.969Z,9.73
2022-08-26T07:05:29.390Z,8.97
2022-08-26T07:06:05.521Z,9.33
2022-08-26T07:06:41.300Z,9.80
2022-08-26T07:07:15.794Z,10.00
2022-08-26T07:07:52.577Z,9.97
2022-08-26T07:08:24.899Z,9.87
2022-08-26T07:09:05.130Z,10.00
2022-08-26T07:09:37.722Z,10.30
2022-08-26T07:10:11.747Z,9.10
2022-08-26T07:10:47.090Z,9.43
2022-08-26T07:11:20.137Z,9.70
2022-08-26T07:11:53.677Z,10.07
2022-08-26T07:12:28.710Z,10.03
2022-08-26T07:13:01.069Z,9.73
2022-08-26T07:13:37.725Z,9.00
2022-08-26T07:14:12.939Z,8.97
2022-08-26T07:14:47.522Z,9.33
2022-08-26T07:15:31.000Z,9.30
2022-08-26T07:16:05.052Z,9.87
2022-08-26T07:16:42.066Z,9.53
2022-08-26T07:17:14.748Z,9.83
2022-08-26T07:17:49.762Z,9.50
2022-08-26T07:18:22.121Z,8.97
2022-08-26T07:18:58.171Z,9.03
2022-08-26T07:19:31.779Z,10.10
2022-08-26T07:20:08.579Z,10.80
2022-08-26T07:20:42.280Z,10.50
2022-08-26T07:21:18.244Z,9.87
2022-08-26T07:21:53.639Z,10.37
2022-08-26T07:22:28.026Z,11.00
2022-08-26T07:23:03.668Z,10.47
2022-08-26T07:23:37.429Z,10.20
2022-08-26T07:24:15.721Z,11.20
2022-08-26T07:24:49.103Z,10.40
2022-08-26T07:25:21.526Z,11.57
2022-08-26T07:25:57.298Z,11.60
2022-08-26T07:26:30.941Z,10.53
2022-08-26T07:27:05.602Z,10.67
2022-08-26T07:27:41.465Z,11.10
2022-08-26T07:28:13.854Z,10.10
2022-08-26T07:28:47.390Z,10.80
2022-08-26T07:29:22.298Z,10.40
2022-08-26T07:29:57.977Z,10.47
2022-08-26T07:30:35.969Z,10.77
2022-08-26T07:31:09.774Z,10.00
2022-08-26T07:31:42.792Z,10.63
2022-08-26T07:32:18.586Z,9.30
2022-08-26T07:32:50.988Z,9.70
2022-08-26T07:33:25.901Z,9.90
2022-08-26T07:33:58.679Z,9.60
2022-08-26T07:34:35.662Z,10.00
2022-08-26T07:35:09.074Z,10.43
2022-08-26T07:35:44.653Z,10.30
2022-08-26T07:36:18.432Z,10.10
2022-08-26T07:36:50.827Z,10.20
2022-08-26T07:37:25.778Z,10.67
2022-08-26T07:37:58.423Z,9.77
2022-08-26T07:38:33.875Z,10.63
2022-08-26T07:39:06.618Z,9.23
2022-08-26T07:39:40.376Z,10.07
2022-08-26T07:40:15.460Z,9.70
2022-08-26T07:40:48.881Z,10.70
2022-08-26T07:41:24.176Z,9.60
2022-08-26T07:41:59.097Z,9.53
2022-08-26T07:42:32.287Z,10.10
2022-08-26T07:43:07.439Z,9.93
2022-08-26T07:43:41.295Z,9.90
2022-08-26T07:44:13.887Z,9.33
2022-08-26T07:44:49.673Z,10.30
2022-08-26T07:45:22.479Z,9.90
2022-08-26T07:45:58.626Z,10.53
2022-08-26T07:46:33.646Z,8.90
2022-08-26T07:47:10.446Z,9.53
2022-08-26T07:48:00.226Z,9.90
2022-08-26T07:48:36.409Z,7.90
2022-08-26T07:49:12.607Z,8.90
2022-08-26T07:49:45.001Z,9.60
2022-08-26T07:50:20.094Z,8.70
2022-08-26T07:50:53.879Z,8.10
2022-08-26T07:51:29.791Z,8.60